Time;durP1;ratioP1;P1;durP2;ratioP2;P2;SDS_P1;SDS_P2;PMS_P1;PMS_P2;Temp;Humidity;BMP_temperature;BMP_pressure;BME280_temperature;BME280_humidity;BME280_pressure;Samples;Min_cycle;Max_cycle;Signal;HPM_P1;HPM_P2
2022/10/25 00:01:52;;;;;;;8.10;5.90;;;;;;;17.57;64.16;101816.28;4990657;28;20026;-89
2022/10/25 00:04:18;;;;;;;9.65;6.10;;;;;;;17.57;63.95;101814.56;4997765;28;20419;-88
2022/10/25 00:06:44;;;;;;;7.57;6.22;;;;;;;17.42;63.97;101776.94;4989682;28;20025;-89
2022/10/25 00:09:10;;;;;;;7.72;6.35;;;;;;;17.58;63.90;101811.06;4994610;28;20033;-86
2022/10/25 00:11:36;;;;;;;9.75;7.22;;;;;;;17.52;64.10;101802.88;4988248;28;20038;-86
2022/10/25 00:14:04;;;;;;;7.18;6.35;;;;;;;17.46;63.79;101777.16;4992620;28;20029;-88
2022/10/25 00:16:33;;;;;;;8.88;6.40;;;;;;;17.54;64.02;101795.03;4974852;28;20045;-89
2022/10/25 00:18:58;;;;;;;8.32;6.95;;;;;;;17.40;63.96;101770.69;4991909;28;20042;-87
2022/10/25 00:21:24;;;;;;;8.13;6.72;;;;;;;17.54;63.82;101795.94;4991143;28;21107;-89
2022/10/25 00:23:51;;;;;;;8.82;6.88;;;;;;;17.56;63.77;101796.00;4973108;28;20041;-88
2022/10/25 00:26:16;;;;;;;;;;;;;;;17.57;63.77;101790.78;5002169;28;20384;-89
2022/10/25 00:28:42;;;;;;;7.15;6.15;;;;;;;17.58;63.80;101794.34;4989539;28;19920;-88
2022/10/25 00:31:11;;;;;;;9.07;6.90;;;;;;;17.49;63.62;101769.34;4990391;28;20038;-87
2022/10/25 00:33:37;;;;;;;8.73;6.45;;;;;;;17.52;63.73;101772.94;4990891;28;20519;-88
2022/10/25 00:36:20;;;;;;;8.65;7.03;;;;;;;17.55;63.68;101788.94;4980343;28;20408;-88
2022/10/25 00:38:46;;;;;;;9.35;6.78;;;;;;;17.55;63.74;101779.28;4989236;28;20116;-89
2022/10/25 00:41:14;;;;;;;8.48;6.20;;;;;;;17.57;63.67;101777.59;4992175;28;20586;-88
2022/10/25 00:43:42;;;;;;;9.88;7.25;;;;;;;17.56;63.65;101775.78;4990715;28;20081;-89
2022/10/25 00:46:17;;;;;;;9.88;7.18;;;;;;;17.52;63.74;101781.75;4988126;28;20030;-89
2022/10/25 00:48:51;;;;;;;9.30;6.75;;;;;;;17.49;63.85;101776.38;4997287;28;20026;-89
2022/10/25 00:51:17;;;;;;;10.05;7.18;;;;;;;17.58;63.70;101778.50;4995414;28;20031;-89
2022/10/25 00:53:43;;;;;;;7.75;6.45;;;;;;;17.50;63.77;101764.94;4989142;28;20030;-88
2022/10/25 00:56:16;;;;;;;8.32;6.72;;;;;;;17.53;63.72;101777.41;4989534;28;20038;-89
2022/10/25 00:58:43;;;;;;;7.80;6.57;;;;;;;17.50;63.73;101784.38;4976570;28;20030;-89
2022/10/25 01:01:09;;;;;;;10.98;7.45;;;;;;;17.51;63.77;101779.97;4990805;28;20034;-88
2022/10/25 01:03:38;;;;;;;8.10;7.00;;;;;;;17.50;63.73;101780.78;4998382;28;20411;-89
2022/10/25 01:06:06;;;;;;;9.45;6.82;;;;;;;17.50;63.80;101776.44;4997803;28;20057;-89
2022/10/25 01:08:33;;;;;;;9.63;6.78;;;;;;;17.52;63.63;101772.94;4991941;28;20031;-88
2022/10/25 01:10:59;;;;;;;8.38;6.97;;;;;;;17.39;63.48;101753.03;4984124;28;20038;-88
2022/10/25 01:13:25;;;;;;;8.75;6.72;;;;;;;17.51;63.73;101772.06;4992205;28;20030;-89
2022/10/25 01:16:08;;;;;;;10.30;7.32;;;;;;;17.51;63.69;101772.06;4985510;28;20022;-89
2022/10/25 01:18:44;;;;;;;8.25;6.63;;;;;;;17.40;63.56;101752.19;4989046;28;20050;-88
2022/10/25 01:21:13;;;;;;;9.98;7.13;;;;;;;17.47;63.75;101772.75;4980117;28;20033;-89
2022/10/25 01:24:04;;;;;;;9.40;6.88;;;;;;;17.49;63.57;101779.91;4990018;28;20149;-88
2022/10/25 01:26:48;;;;;;;8.15;6.57;;;;;;;17.45;63.74;101772.69;4988308;28;20061;-90
2022/10/25 01:29:25;;;;;;;9.88;7.50;;;;;;;17.47;63.73;101772.75;4994357;28;20506;-89
2022/10/25 01:32:38;;;;;;;11.10;7.13;;;;;;;17.43;63.71;101766.44;4995680;28;20109;-89
2022/10/25 01:35:12;;;;;;;9.30;7.13;;;;;;;17.46;63.54;101768.31;4896198;29;20120;-90
2022/10/25 01:38:13;;;;;;;10.07;7.53;;;;;;;17.49;63.50;101769.34;4967650;28;20044;-89
2022/10/25 01:40:49;;;;;;;9.70;7.30;;;;;;;17.46;63.72;101771.88;4982469;28;20389;-89
2022/10/25 01:43:43;;;;;;;9.80;7.53;;;;;;;17.38;63.71;101754.78;4994536;28;20022;-89
2022/10/25 01:46:15;;;;;;;10.20;7.05;;;;;;;17.42;63.82;101775.22;4994401;28;20037;-88
2022/10/25 01:48:45;;;;;;;9.45;7.30;;;;;;;17.42;63.63;101769.00;4995416;28;20128;-89
2022/10/25 01:51:15;;;;;;;8.75;6.97;;;;;;;17.41;63.55;101764.56;4986205;28;20033;-89
2022/10/25 01:53:48;;;;;;;9.88;7.43;;;;;;;17.43;63.54;101762.91;4989754;28;20034;-88
2022/10/25 01:56:19;;;;;;;9.43;7.47;;;;;;;17.37;63.60;101747.69;4996931;28;20168;-84
2022/10/25 01:58:59;;;;;;;9.55;7.32;;;;;;;17.43;63.50;101757.63;4991549;28;20414;-88
2022/10/25 02:02:04;;;;;;;9.65;7.18;;;;;;;17.39;63.71;101758.31;4983575;28;20079;-89
2022/10/25 02:04:41;;;;;;;8.60;7.38;;;;;;;17.35;63.62;101743.19;4991135;28;20072;-88
2022/10/25 02:07:10;;;;;;;10.30;7.03;;;;;;;17.39;63.53;101745.13;4994298;28;20026;-89
2022/10/25 02:09:57;;;;;;;9.43;7.32;;;;;;;17.40;63.56;101753.13;4995930;28;20084;-88
2022/10/25 02:12:46;;;;;;;9.38;7.38;;;;;;;17.34;63.46;101739.66;4986515;28;20034;-87
2022/10/25 02:15:24;;;;;;;8.35;6.88;;;;;;;17.37;63.65;101752.97;4978588;28;20030;-88
2022/10/25 02:17:58;;;;;;;8.77;6.82;;;;;;;17.40;63.61;101752.19;5003708;28;20047;-87
2022/10/25 02:20:24;;;;;;;8.82;6.55;;;;;;;17.39;63.68;101745.13;4994314;28;20032;-87
2022/10/25 02:22:51;;;;;;;8.55;7.03;;;;;;;17.29;63.74;101736.84;5002028;28;20506;-89
2022/10/25 02:25:17;;;;;;;9.30;6.88;;;;;;;17.32;63.61;101741.34;4983291;28;20215;-88
2022/10/25 02:27:43;;;;;;;10.32;7.68;;;;;;;17.39;63.43;101761.84;4992876;28;20084;-88
2022/10/25 02:30:09;;;;;;;;;;;;;;;17.39;63.38;101759.22;4992303;28;20088;-89
2022/10/25 02:32:35;;;;;;;9.95;6.85;;;;;;;17.33;63.69;101752.78;4999078;28;19913;-89
2022/10/25 02:35:03;;;;;;;8.80;7.13;;;;;;;17.34;63.57;101747.59;4997994;28;20022;-86
2022/10/25 02:37:30;;;;;;;8.85;6.93;;;;;;;17.31;63.52;101739.50;4993036;28;20033;-87
2022/10/25 02:39:56;;;;;;;9.88;7.63;;;;;;;17.30;63.59;101737.72;5003517;28;20189;-87
2022/10/25 02:42:21;;;;;;;8.85;7.20;;;;;;;17.21;63.56;101727.69;4992555;28;20070;-88
2022/10/25 02:44:47;;;;;;;11.20;7.05;;;;;;;17.34;63.58;101744.94;4998588;28;20073;-88
2022/10/25 02:47:12;;;;;;;10.90;7.15;;;;;;;17.32;63.51;101743.06;4992890;28;20031;-86
2022/10/25 02:49:38;;;;;;;9.23;7.25;;;;;;;17.30;63.60;101743.00;4992994;28;20488;-88
2022/10/25 02:52:04;;;;;;;9.57;7.22;;;;;;;17.28;63.54;101748.22;4974344;28;20739;-88
2022/10/25 02:54:29;;;;;;;9.48;7.82;;;;;;;17.17;63.58;101715.19;4988403;28;20033;-88
2022/10/25 02:56:55;;;;;;;10.15;7.70;;;;;;;17.32;63.52;101740.44;5006436;28;20026;-89
2022/10/25 02:59:21;;;;;;;10.25;7.30;;;;;;;17.30;63.49;101738.63;4993014;28;20034;-89
2022/10/25 03:01:47;;;;;;;11.07;7.18;;;;;;;17.27;63.44;101737.56;4990209;28;20488;-89
2022/10/25 03:04:13;;;;;;;10.18;7.43;;;;;;;17.17;63.31;101715.19;4991149;28;20105;-87
2022/10/25 03:06:38;;;;;;;8.35;7.32;;;;;;;17.24;63.42;101726.91;4975740;28;20475;-88
2022/10/25 03:09:05;;;;;;;9.23;7.15;;;;;;;17.29;63.82;101728.91;4988564;28;20030;-87
2022/10/25 03:11:31;;;;;;;9.15;7.25;;;;;;;17.27;63.19;101733.22;4989196;28;20034;-90
2022/10/25 03:13:56;;;;;;;8.95;7.00;;;;;;;17.29;63.36;101734.19;4991696;28;20527;-88
2022/10/25 03:16:23;;;;;;;9.63;7.05;;;;;;;17.12;63.59;101705.25;4986594;28;20523;-89
2022/10/25 03:18:48;;;;;;;10.90;7.68;;;;;;;17.28;63.27;101742.94;4988589;28;20065;-85
2022/10/25 03:21:14;;;;;;;9.48;7.18;;;;;;;17.22;63.52;101737.38;4993981;28;20499;-89
2022/10/25 03:23:39;;;;;;;11.32;7.20;;;;;;;17.21;63.45;101740.00;4980856;28;20693;-88
2022/10/25 03:26:05;;;;;;;9.40;7.22;;;;;;;17.19;63.30;101724.06;4992450;28;20089;-89
2022/10/25 03:28:31;;;;;;;8.82;6.88;;;;;;;17.07;63.32;101705.06;4992093;28;20036;-89
2022/10/25 03:30:58;;;;;;;10.45;7.47;;;;;;;17.16;63.39;101728.31;4991325;28;20033;-89
2022/10/25 03:33:24;;;;;;;10.00;6.53;;;;;;;17.26;63.25;101741.97;4990219;28;20034;-89
2022/10/25 03:35:52;;;;;;;7.80;6.72;;;;;;;17.25;63.33;101732.25;4991146;28;20018;-90
2022/10/25 03:38:18;;;;;;;8.60;7.30;;;;;;;17.26;63.31;101739.31;4994903;28;20045;-87
2022/10/25 03:40:44;;;;;;;9.82;7.05;;;;;;;17.22;63.45;101731.22;5001661;28;20029;-88
2022/10/25 03:43:09;;;;;;;9.00;7.25;;;;;;;17.25;63.48;101734.91;4987411;28;20035;-88
2022/10/25 03:45:36;;;;;;;9.73;7.10;;;;;;;17.07;63.33;101711.25;4984540;28;20040;-88
2022/10/25 03:48:01;;;;;;;8.80;7.13;;;;;;;17.15;63.29;101715.97;4976014;28;20037;-89
2022/10/25 03:50:27;;;;;;;8.55;6.90;;;;;;;17.17;63.26;101716.94;4995447;28;20045;-86
2022/10/25 03:52:52;;;;;;;8.68;7.15;;;;;;;17.24;63.20;101733.06;4987237;28;20504;-88
2022/10/25 03:55:18;;;;;;;9.20;6.80;;;;;;;17.23;63.27;101730.38;4985655;28;20105;-88
2022/10/25 03:57:44;;;;;;;9.30;7.35;;;;;;;17.15;63.14;101721.25;5006673;28;20117;-88
2022/10/25 04:00:10;;;;;;;10.43;7.45;;;;;;;17.24;63.24;101732.19;4991959;28;20077;-88
2022/10/25 04:02:36;;;;;;;10.60;7.47;;;;;;;17.18;63.32;101722.25;4992628;28;20100;-88
2022/10/25 04:05:01;;;;;;;9.45;7.68;;;;;;;17.12;63.31;101711.44;4996298;28;20021;-88
2022/10/25 04:07:27;;;;;;;9.32;7.50;;;;;;;17.24;63.13;101729.53;4989758;28;20042;-88
2022/10/25 04:09:53;;;;;;;9.20;6.90;;;;;;;17.19;63.30;101728.47;4991127;28;20101;-86
2022/10/25 04:12:18;;;;;;;9.50;6.97;;;;;;;17.17;63.42;101728.38;4990530;28;20484;-88
2022/10/25 04:14:44;;;;;;;11.15;7.32;;;;;;;17.16;63.26;101726.56;4991708;28;20076;-88
2022/10/25 04:17:09;;;;;;;10.27;7.55;;;;;;;17.20;63.25;101732.88;4984265;28;20030;-87
2022/10/25 04:19:35;;;;;;;10.20;7.38;;;;;;;16.98;63.13;101688.88;4991033;28;20069;-88
2022/10/25 04:22:03;;;;;;;7.65;6.80;;;;;;;17.00;63.27;101695.09;4986780;28;20027;-89
2022/10/25 04:24:29;;;;;;;10.02;7.03;;;;;;;17.12;63.29;101718.47;4990545;28;20454;-89
2022/10/25 04:26:55;;;;;;;9.02;7.05;;;;;;;17.17;63.39;101722.22;4991426;28;20022;-89
2022/10/25 04:29:20;;;;;;;8.57;6.93;;;;;;;17.16;63.41;101723.03;4985544;28;20622;-88
2022/10/25 04:31:46;;;;;;;8.13;6.90;;;;;;;17.15;63.13;101708.94;4989038;28;20502;-88
2022/10/25 04:34:11;;;;;;;11.32;7.40;;;;;;;17.19;63.23;101720.53;4967079;28;20040;-88
2022/10/25 04:36:40;;;;;;;8.43;6.82;;;;;;;17.07;63.18;101700.69;4980012;28;20026;-88
2022/10/25 04:39:05;;;;;;;10.25;7.18;;;;;;;17.06;63.31;101698.91;4990427;28;20084;-89
2022/10/25 04:41:31;;;;;;;11.60;7.10;;;;;;;17.15;63.26;101708.06;4987901;28;20030;-85
2022/10/25 04:43:57;;;;;;;9.32;7.22;;;;;;;17.17;63.11;101711.66;4974405;28;20171;-84
2022/10/25 04:46:22;;;;;;;8.65;7.22;;;;;;;17.10;63.32;101705.19;4987738;28;20521;-82
2022/10/25 04:48:48;;;;;;;9.15;7.28;;;;;;;17.14;63.18;101711.50;4984638;28;20054;-83
2022/10/25 04:51:14;;;;;;;9.82;6.72;;;;;;;17.15;63.30;101716.88;4990598;28;20470;-86
2022/10/25 04:53:40;;;;;;;10.93;7.00;;;;;;;17.05;63.11;101707.63;4989245;28;20041;-85
2022/10/25 04:56:11;;;;;;;9.48;6.88;;;;;;;17.14;63.12;101724.72;4990733;28;20475;-86
2022/10/25 04:58:37;;;;;;;9.68;7.45;;;;;;;17.06;63.25;101705.94;4987888;28;20045;-85
2022/10/25 05:01:08;;;;;;;8.90;7.15;;;;;;;17.06;63.40;101721.75;4990723;28;20114;-86
2022/10/25 05:03:35;;;;;;;9.55;6.90;;;;;;;17.11;63.26;101721.94;4995151;28;20494;-88
2022/10/25 05:06:27;;;;;;;10.02;7.10;;;;;;;17.12;63.22;101719.34;4986591;28;20054;-91
2022/10/25 05:08:59;;;;;;;8.52;6.95;;;;;;;17.15;63.02;101718.59;4988075;28;20042;-89
2022/10/25 05:11:25;;;;;;;9.93;7.07;;;;;;;17.12;63.40;101714.06;4971526;28;20026;-91
2022/10/25 05:13:51;;;;;;;11.38;6.95;;;;;;;17.07;63.12;101713.00;4994099;28;20025;-89
2022/10/25 05:16:21;;;;;;;8.20;7.00;;;;;;;17.12;63.31;101721.09;4994283;28;20034;-88
2022/10/25 05:18:49;;;;;;;9.52;6.80;;;;;;;17.09;62.88;101716.59;4993621;28;20116;-88
2022/10/25 05:21:17;;;;;;;8.75;7.30;;;;;;;17.07;63.17;101719.16;4997374;28;20034;-88
2022/10/25 05:23:43;;;;;;;10.20;6.85;;;;;;;17.12;63.08;101729.91;5013893;28;20038;-88
2022/10/25 05:26:10;;;;;;;8.57;7.20;;;;;;;17.09;63.18;101730.69;4993759;28;20419;-88
2022/10/25 05:28:38;;;;;;;10.38;7.00;;;;;;;17.11;63.05;101728.13;4990162;28;20535;-90
2022/10/25 05:31:04;;;;;;;8.93;6.75;;;;;;;17.04;63.03;101719.03;4997694;28;20353;-89
2022/10/25 05:33:32;;;;;;;9.27;7.45;;;;;;;17.08;63.27;101730.63;4996117;28;20168;-91
2022/10/25 05:35:59;;;;;;;10.57;7.80;;;;;;;16.92;63.26;101701.78;5002051;28;20113;-89
2022/10/25 05:38:25;;;;;;;10.93;7.22;;;;;;;16.93;63.19;101709.75;4997073;28;20026;-88
2022/10/25 05:40:59;;;;;;;9.85;6.93;;;;;;;17.11;63.13;101733.41;4993451;28;20022;-89
2022/10/25 05:43:25;;;;;;;11.10;8.13;;;;;;;17.06;63.16;101738.50;4986333;28;20034;-89
2022/10/25 05:45:52;;;;;;;11.45;7.40;;;;;;;16.86;62.92;101702.41;4999334;28;20034;-88
2022/10/25 05:48:20;;;;;;;;;;;;;;;17.09;62.99;101741.25;4985813;28;20034;-87
2022/10/25 05:50:46;;;;;;;9.88;7.15;;;;;;;17.06;63.17;101737.59;4995800;28;19913;-88
2022/10/25 05:53:12;;;;;;;10.27;7.10;;;;;;;17.07;62.99;101744.66;4997449;28;20466;-89
2022/10/25 05:55:37;;;;;;;9.98;8.05;;;;;;;16.70;62.94;101682.38;4994395;28;20030;-88
2022/10/25 05:58:03;;;;;;;12.18;7.72;;;;;;;16.98;63.15;101728.44;4992748;28;20400;-88
2022/10/25 06:00:29;;;;;;;11.10;7.30;;;;;;;16.87;62.88;101717.44;4992182;28;20121;-88
2022/10/25 06:02:55;;;;;;;12.02;7.95;;;;;;;16.94;63.01;101726.50;4987347;28;20030;-88
2022/10/25 06:05:20;;;;;;;10.70;7.68;;;;;;;16.78;63.22;101706.41;4988329;28;20597;-86
2022/10/25 06:07:46;;;;;;;10.48;7.80;;;;;;;16.82;63.11;101718.94;4981705;28;20034;-87
2022/10/25 06:10:12;;;;;;;9.38;7.50;;;;;;;16.69;62.98;101701.66;4985761;28;20041;-87
2022/10/25 06:12:38;;;;;;;11.27;8.13;;;;;;;16.52;63.21;101676.28;5007615;28;20065;-87
2022/10/25 06:15:05;;;;;;;9.32;7.25;;;;;;;16.47;63.13;101661.16;4986970;28;20489;-88
2022/10/25 06:17:30;;;;;;;11.88;7.00;;;;;;;17.03;63.23;101764.72;4989987;28;20069;-89
2022/10/25 06:19:56;;;;;;;9.55;7.40;;;;;;;16.76;63.20;101718.63;4997313;28;20030;-87
2022/10/25 06:22:21;;;;;;;12.23;7.70;;;;;;;16.91;63.24;101740.44;5003870;28;20038;-88
2022/10/25 06:24:47;;;;;;;10.10;7.85;;;;;;;17.08;63.15;101772.84;4988036;28;20033;-89
2022/10/25 06:27:12;;;;;;;9.07;7.35;;;;;;;16.67;63.15;101705.94;4976962;28;20492;-88
2022/10/25 06:29:38;;;;;;;9.73;7.05;;;;;;;16.46;63.46;101672.50;4992803;28;20030;-88
2022/10/25 06:32:04;;;;;;;9.43;7.60;;;;;;;16.98;63.58;101763.66;5001621;28;20034;-88
2022/10/25 06:34:29;;;;;;;11.60;7.65;;;;;;;17.04;63.67;101770.94;5008168;28;20506;-88
2022/10/25 06:36:55;;;;;;;9.77;7.65;;;;;;;16.75;63.37;101725.66;4994791;28;20508;-87
2022/10/25 06:39:20;;;;;;;9.60;7.53;;;;;;;17.02;63.41;101772.59;4991888;28;20121;-87
2022/10/25 06:41:46;;;;;;;8.95;7.10;;;;;;;16.76;63.47;101723.91;5006625;28;20129;-88
2022/10/25 06:44:11;;;;;;;8.65;7.03;;;;;;;16.38;63.43;101670.38;4985780;28;20125;-87
2022/10/25 06:46:39;;;;;;;9.93;7.57;;;;;;;16.86;63.41;101739.34;4997341;28;20030;-92
2022/10/25 06:49:12;;;;;;;9.82;7.20;;;;;;;17.04;63.44;101771.84;4995190;28;20087;-93
2022/10/25 06:52:04;;;;;;;11.77;7.70;;;;;;;17.03;63.41;101762.09;4982603;28;20513;-92
2022/10/25 06:54:34;;;;;;;8.93;7.18;;;;;;;16.84;63.33;101731.34;5001129;28;20033;-91
2022/10/25 06:57:00;;;;;;;9.05;7.30;;;;;;;16.79;63.46;101724.97;4992609;28;20030;-89
2022/10/25 06:59:28;;;;;;;10.95;7.13;;;;;;;16.67;63.39;101706.84;4976894;28;20038;-89
2022/10/25 07:01:56;;;;;;;9.57;7.43;;;;;;;16.48;63.13;101664.69;4992264;28;20286;-90
2022/10/25 07:04:31;;;;;;;9.23;6.88;;;;;;;16.72;63.55;101707.06;4984146;28;20039;-90
2022/10/25 07:07:02;;;;;;;8.85;6.75;;;;;;;16.43;63.48;101647.78;4988974;28;20415;-89
2022/10/25 07:09:30;;;;;;;10.18;7.13;;;;;;;16.63;63.45;101681.16;4988908;28;20042;-90
2022/10/25 07:12:06;;;;;;;8.43;6.82;;;;;;;16.78;63.50;101702.03;4996960;28;20510;-90
2022/10/25 07:14:33;;;;;;;9.45;6.50;;;;;;;16.75;63.39;101701.03;4996248;28;20056;-92
2022/10/25 07:17:00;;;;;;;9.45;6.85;;;;;;;16.87;63.46;101715.69;4996746;28;20033;-91
2022/10/25 07:19:40;;;;;;;9.15;6.80;;;;;;;17.05;63.55;101746.34;4996784;28;20491;-92
2022/10/25 07:22:05;;;;;;;8.57;6.95;;;;;;;17.05;63.55;101738.41;4989665;28;20022;-92
2022/10/25 07:24:32;;;;;;;9.25;6.93;;;;;;;17.02;63.61;101740.94;4998105;28;20030;-92
2022/10/25 07:26:57;;;;;;;8.63;6.63;;;;;;;16.91;63.58;101726.34;4995668;28;20068;-89
2022/10/25 07:29:24;;;;;;;10.27;7.57;;;;;;;17.00;63.77;101739.97;5001117;28;20023;-89
2022/10/25 07:31:49;;;;;;;10.40;7.50;;;;;;;16.92;63.72;101726.44;5002284;28;20058;-90
2022/10/25 07:34:16;;;;;;;7.95;6.65;;;;;;;16.84;63.79;101718.16;5003497;28;20515;-91
2022/10/25 07:36:42;;;;;;;9.20;7.15;;;;;;;16.97;63.78;101738.06;4982544;28;20056;-91
2022/10/25 07:39:09;;;;;;;10.00;7.22;;;;;;;17.02;63.70;101744.47;4976610;28;20476;-92
2022/10/25 07:41:42;;;;;;;11.15;7.72;;;;;;;16.96;63.65;101727.47;4992635;28;20034;-92
2022/10/25 07:44:08;;;;;;;8.57;6.60;;;;;;;17.00;63.73;101735.59;4981014;28;20034;-87
2022/10/25 07:46:33;;;;;;;11.48;7.10;;;;;;;16.99;63.69;101727.59;4985153;28;20038;-88
2022/10/25 07:48:59;;;;;;;8.38;6.68;;;;;;;16.99;63.62;101732.88;4984578;28;20023;-87
2022/10/25 07:51:25;;;;;;;9.07;6.72;;;;;;;16.92;63.50;101709.72;4993848;28;20057;-86
2022/10/25 07:53:51;;;;;;;8.07;6.43;;;;;;;16.98;63.85;101718.78;4997945;28;20045;-86
2022/10/25 07:56:18;;;;;;;10.05;7.50;;;;;;;17.03;63.74;101716.34;4984394;28;20039;-86
2022/10/25 07:58:44;;;;;;;11.60;7.75;;;;;;;17.05;63.66;101709.38;4989026;28;20041;-86
2022/10/25 08:01:10;;;;;;;9.13;6.63;;;;;;;17.04;63.76;101713.78;4990180;28;20034;-86
2022/10/25 08:03:36;;;;;;;9.25;7.20;;;;;;;17.07;63.57;101719.16;4982436;28;20038;-86
2022/10/25 08:06:02;;;;;;;9.38;6.90;;;;;;;17.08;63.38;101715.72;4988915;28;20033;-86
2022/10/25 08:08:28;;;;;;;10.80;7.28;;;;;;;17.03;63.83;101706.66;4985751;28;20570;-88
2022/10/25 08:10:54;;;;;;;10.52;7.38;;;;;;;17.08;63.70;101710.44;4988495;28;20169;-91
2022/10/25 08:13:20;;;;;;;9.40;7.50;;;;;;;17.09;63.60;101712.22;4989505;28;20117;-91
2022/10/25 08:15:52;;;;;;;10.55;7.35;;;;;;;17.00;63.69;101684.56;4992293;28;20505;-90
2022/10/25 08:18:18;;;;;;;9.52;7.28;;;;;;;17.02;63.64;101686.41;4991839;28;20043;-90
2022/10/25 08:20:43;;;;;;;10.60;7.38;;;;;;;17.13;63.58;101707.09;4984915;28;20049;-90
2022/10/25 08:23:10;;;;;;;10.05;7.50;;;;;;;17.12;63.66;101711.44;4991030;28;20418;-89
2022/10/25 08:25:36;;;;;;;11.02;7.07;;;;;;;16.98;63.71;101675.66;4992607;28;20026;-90
2022/10/25 08:28:04;;;;;;;9.80;7.43;;;;;;;17.09;63.41;101692.84;4979173;28;20061;-87
2022/10/25 08:30:29;;;;;;;10.27;7.65;;;;;;;17.07;63.49;101683.97;4992297;28;20022;-89
2022/10/25 08:32:55;;;;;;;9.73;7.32;;;;;;;17.09;63.60;101677.91;4975624;28;20026;-90
2022/10/25 08:35:20;;;;;;;10.85;7.38;;;;;;;17.10;63.56;101681.44;4999418;28;20033;-90
2022/10/25 08:37:46;;;;;;;10.48;7.72;;;;;;;17.18;63.48;101687.06;4986199;28;20167;-89
2022/10/25 08:40:44;;;;;;;9.55;7.47;;;;;;;17.13;63.71;101685.97;5007680;28;20035;-89
2022/10/25 08:43:39;;;;;;;10.45;7.47;;;;;;;17.15;63.74;101677.28;4946637;28;20038;-89
2022/10/25 08:46:12;;;;;;;8.77;6.95;;;;;;;17.10;63.62;101670.88;4995333;28;20030;-90
2022/10/25 08:48:41;;;;;;;11.25;7.53;;;;;;;17.15;63.63;101679.91;4996783;28;20034;-89
2022/10/25 08:51:29;;;;;;;9.45;7.65;;;;;;;17.18;63.51;101665.94;5009448;28;20518;-90
2022/10/25 08:53:57;;;;;;;10.90;7.40;;;;;;;17.14;63.75;101669.28;4996760;28;20034;-91
2022/10/25 08:56:24;;;;;;;11.00;7.57;;;;;;;17.16;63.59;101672.88;4996359;28;20034;-89
2022/10/25 08:58:59;;;;;;;9.18;7.32;;;;;;;17.13;63.60;101657.84;4977017;28;20125;-91
2022/10/25 09:01:35;;;;;;;9.75;7.00;;;;;;;17.10;63.57;101657.69;4994157;28;20053;-88
2022/10/25 09:04:01;;;;;;;9.00;7.45;;;;;;;17.12;63.78;101660.41;4993783;28;20030;-86
2022/10/25 09:06:26;;;;;;;11.05;7.75;;;;;;;17.17;63.86;101661.50;4987411;28;20039;-87
2022/10/25 09:09:05;;;;;;;10.20;7.43;;;;;;;17.14;63.70;101653.44;4992972;28;20057;-87
2022/10/25 09:11:47;;;;;;;11.35;7.35;;;;;;;17.10;63.63;101649.78;4993937;28;20026;-87
2022/10/25 09:14:40;;;;;;;10.63;7.40;;;;;;;17.00;63.78;101631.78;4993590;28;20034;-86
2022/10/25 09:17:15;;;;;;;11.02;7.72;;;;;;;17.17;63.67;101658.88;4992039;28;20514;-86
2022/10/25 09:20:05;;;;;;;11.98;7.68;;;;;;;17.17;63.69;101651.84;4994118;28;20049;-86
2022/10/25 09:22:44;;;;;;;11.18;7.57;;;;;;;17.16;63.71;101646.50;4989062;28;20035;-85
2022/10/25 09:25:22;;;;;;;11.65;7.57;;;;;;;17.18;63.62;101653.63;4991982;28;20105;-86
2022/10/25 09:27:57;;;;;;;10.27;7.45;;;;;;;17.15;63.80;101642.06;4992065;28;20023;-85
2022/10/25 09:30:23;;;;;;;11.15;7.55;;;;;;;16.98;63.58;101610.59;4992001;28;20030;-85
2022/10/25 09:32:53;;;;;;;10.50;7.47;;;;;;;17.18;63.72;101636.91;5001263;28;20025;-85
2022/10/25 09:35:34;;;;;;;10.75;7.63;;;;;;;17.08;63.74;101614.50;4989627;28;20411;-85
2022/10/25 09:38:13;;;;;;;11.68;8.02;;;;;;;17.14;63.75;101621.78;4984392;28;20034;-85
2022/10/25 09:40:44;;;;;;;11.20;8.02;;;;;;;17.16;63.65;101628.00;4992590;28;20095;-85
2022/10/25 09:43:16;;;;;;;10.00;7.40;;;;;;;17.11;63.88;101627.84;4998624;28;20026;-85
2022/10/25 09:45:58;;;;;;;10.00;7.57;;;;;;;17.01;64.26;101626.53;4990916;28;20022;-85
2022/10/25 09:48:32;;;;;;;10.75;7.93;;;;;;;17.04;64.19;101626.69;4991981;28;20037;-86
2022/10/25 09:51:05;;;;;;;9.00;7.38;;;;;;;17.04;64.19;101624.03;4993248;28;20022;-85
2022/10/25 09:53:32;;;;;;;11.55;7.95;;;;;;;16.96;64.03;101603.47;4975827;28;20501;-85
2022/10/25 09:55:59;;;;;;;10.75;7.43;;;;;;;17.05;64.09;101619.66;4991680;28;20045;-84
2022/10/25 09:58:26;;;;;;;10.38;7.78;;;;;;;17.02;64.16;101624.81;4992349;28;20058;-85
2022/10/25 10:00:53;;;;;;;10.30;7.30;;;;;;;16.98;64.33;101613.22;4991165;28;20037;-85
2022/10/25 10:03:19;;;;;;;9.13;7.38;;;;;;;16.85;64.15;101574.00;4993107;28;20399;-85
2022/10/25 10:05:58;;;;;;;11.63;7.85;;;;;;;17.05;63.99;101602.09;4987816;28;20057;-85
2022/10/25 10:08:24;;;;;;;10.93;7.63;;;;;;;17.04;63.93;101591.50;4984775;28;20038;-84
2022/10/25 10:10:51;;;;;;;10.02;7.78;;;;;;;17.05;64.22;101596.81;4991472;28;20097;-86
2022/10/25 10:13:40;;;;;;;9.93;7.20;;;;;;;17.02;64.10;101591.41;4988780;28;20089;-86
2022/10/25 10:16:31;;;;;;;12.52;7.32;;;;;;;17.12;63.90;101597.94;4988465;28;20447;-86
2022/10/25 10:19:18;;;;;;;10.23;7.90;;;;;;;17.02;63.99;101578.22;4985337;28;20045;-85
2022/10/25 10:21:45;;;;;;;11.18;7.70;;;;;;;17.06;63.87;101582.78;4988664;28;20026;-86
2022/10/25 10:24:27;;;;;;;10.57;7.70;;;;;;;17.05;63.87;101577.44;4988809;28;20638;-85
2022/10/25 10:27:19;;;;;;;11.18;7.75;;;;;;;16.96;63.90;101561.25;4992054;28;20029;-85
2022/10/25 10:30:06;;;;;;;11.15;7.82;;;;;;;17.12;63.80;101568.91;4973589;28;20030;-86
2022/10/25 10:32:36;;;;;;;10.73;7.30;;;;;;;17.13;63.78;101569.84;4992927;28;20026;-86
2022/10/25 10:35:04;;;;;;;12.07;7.75;;;;;;;17.19;63.64;101572.72;4994221;28;20038;-85
2022/10/25 10:37:31;;;;;;;10.23;7.70;;;;;;;17.02;63.73;101538.63;4985347;28;20391;-88
2022/10/25 10:39:58;;;;;;;9.60;7.53;;;;;;;17.05;63.73;101544.03;4986880;28;20085;-87
2022/10/25 10:42:36;;;;;;;10.48;7.65;;;;;;;17.12;63.80;101561.00;4972075;28;20031;-87
2022/10/25 10:45:06;;;;;;;11.63;7.60;;;;;;;17.12;64.02;101563.63;4987959;28;20249;-88
2022/10/25 10:47:47;;;;;;;8.85;6.85;;;;;;;17.18;63.83;101555.97;4986461;28;20027;-88
2022/10/25 10:50:34;;;;;;;12.52;7.90;;;;;;;17.21;63.79;101553.47;5001334;28;20030;-88
2022/10/25 10:53:04;;;;;;;11.07;7.55;;;;;;;17.20;63.74;101554.28;4981704;28;20064;-86
2022/10/25 10:55:31;;;;;;;10.25;7.57;;;;;;;17.07;63.72;101539.72;4991423;28;20172;-87
2022/10/25 10:58:15;;;;;;;11.50;8.23;;;;;;;17.17;63.73;101545.38;4999795;28;20034;-86
2022/10/25 11:01:01;;;;;;;12.15;8.02;;;;;;;17.20;63.76;101546.38;5018169;28;20061;-87
2022/10/25 11:03:41;;;;;;;10.05;7.38;;;;;;;17.21;63.68;101547.28;4991703;28;20078;-87
2022/10/25 11:06:12;;;;;;;12.25;7.93;;;;;;;17.22;63.58;101536.78;4992170;28;20101;-87
2022/10/25 11:08:38;;;;;;;13.10;7.78;;;;;;;17.01;63.64;101497.25;4992526;28;20492;-86
2022/10/25 11:11:16;;;;;;;12.07;7.97;;;;;;;17.20;63.63;101530.53;4988336;28;20569;-87
2022/10/25 11:13:54;;;;;;;11.80;7.40;;;;;;;17.26;63.62;101530.78;4995693;28;20025;-87
2022/10/25 11:16:39;;;;;;;10.85;8.15;;;;;;;17.28;63.51;101526.47;4975000;28;20034;-86
2022/10/25 11:19:13;;;;;;;10.95;8.20;;;;;;;17.29;63.49;101527.34;4991359;28;20057;-87
2022/10/25 11:22:00;;;;;;;10.65;7.88;;;;;;;17.29;63.52;101524.72;4986618;28;20042;-87
2022/10/25 11:24:40;;;;;;;11.07;7.80;;;;;;;17.27;63.53;101511.47;4993048;28;20030;-88
2022/10/25 11:27:18;;;;;;;10.23;7.32;;;;;;;17.31;63.39;101507.19;4992138;28;20555;-86
2022/10/25 11:29:53;;;;;;;10.98;7.50;;;;;;;17.25;63.48;101499.94;4992038;28;20018;-86
2022/10/25 11:32:43;;;;;;;11.07;8.07;;;;;;;17.33;63.58;101509.91;4992148;28;20024;-87
2022/10/25 11:35:27;;;;;;;13.82;7.95;;;;;;;17.33;63.62;101505.50;4988641;28;20030;-86
2022/10/25 11:37:57;;;;;;;11.20;8.18;;;;;;;17.30;63.67;101503.66;4967954;28;20022;-86